createdAt,value
2018-12-20T00:01:51.902Z,40.90
2018-12-20T00:04:18.202Z,40.90
2018-12-20T00:06:44.353Z,40.90
2018-12-20T00:09:10.559Z,40.90
2018-12-20T00:11:36.789Z,40.80
2018-12-20T00:14:03.013Z,40.90
2018-12-20T00:16:29.227Z,40.90
2018-12-20T00:18:55.410Z,40.90
2018-12-20T00:21:21.675Z,40.90
2018-12-20T00:23:47.921Z,40.90
2018-12-20T00:26:14.573Z,40.90
2018-12-20T00:28:40.812Z,40.90
2018-12-20T00:31:13.466Z,40.90
2018-12-20T00:33:33.261Z,41.00
2018-12-20T00:35:59.427Z,40.90
2018-12-20T00:38:25.692Z,41.00
2018-12-20T00:40:51.879Z,40.90
2018-12-20T00:43:18.124Z,41.00
2018-12-20T00:45:44.318Z,40.90
2018-12-20T00:48:11.259Z,41.00
2018-12-20T00:50:37.649Z,40.90
2018-12-20T00:53:03.751Z,41.00
2018-12-20T00:55:29.945Z,40.90
2018-12-20T00:57:56.301Z,41.00
2018-12-20T01:00:22.421Z,41.00
2018-12-20T01:02:55.054Z,40.90
2018-12-20T01:05:15.728Z,41.00
2018-12-20T01:07:41.895Z,41.00
2018-12-20T01:10:08.114Z,41.00
2018-12-20T01:12:34.347Z,41.00
2018-12-20T01:15:00.707Z,41.00
2018-12-20T01:17:26.801Z,41.00
2018-12-20T01:19:53.143Z,41.00
2018-12-20T01:22:19.253Z,41.00
2018-12-20T01:24:45.602Z,41.00
2018-12-20T01:27:11.695Z,40.90
2018-12-20T01:29:37.902Z,41.00
2018-12-20T01:32:05.615Z,41.00
2018-12-20T01:34:31.935Z,40.90
2018-12-20T01:36:58.036Z,41.00
2018-12-20T01:39:24.275Z,41.00
2018-12-20T01:41:50.482Z,41.00
2018-12-20T01:44:16.870Z,41.00
2018-12-20T01:46:42.990Z,41.00
2018-12-20T01:49:10.002Z,41.00
2018-12-20T01:51:36.372Z,41.00
2018-12-20T01:54:02.661Z,41.00
2018-12-20T01:56:28.782Z,41.00
2018-12-20T01:58:55.036Z,41.00
2018-12-20T02:01:21.381Z,41.00
2018-12-20T02:03:47.588Z,41.00
2018-12-20T02:06:13.987Z,40.90
2018-12-20T02:08:40.034Z,41.00
2018-12-20T02:11:06.277Z,41.00
2018-12-20T02:13:32.476Z,41.00
2018-12-20T02:15:58.836Z,41.00
2018-12-20T02:18:25.104Z,41.00
2018-12-20T02:20:51.322Z,41.00
2018-12-20T02:23:17.432Z,40.90
2018-12-20T02:25:43.802Z,40.90
2018-12-20T02:28:10.082Z,41.60
2018-12-20T02:30:36.162Z,40.90
2018-12-20T02:33:02.353Z,41.00
2018-12-20T02:35:29.654Z,41.00
2018-12-20T02:37:55.636Z,40.90
2018-12-20T02:40:22.042Z,41.10
2018-12-20T02:42:48.870Z,41.00
2018-12-20T02:45:15.100Z,40.90
2018-12-20T02:47:41.275Z,41.00
2018-12-20T02:50:07.496Z,41.00
2018-12-20T02:52:33.726Z,41.00
2018-12-20T02:55:00.136Z,41.00
2018-12-20T02:57:26.275Z,41.00
2018-12-20T02:59:53.077Z,41.00
2018-12-20T03:02:19.525Z,41.10
2018-12-20T03:04:45.594Z,41.00
2018-12-20T03:07:11.802Z,41.00
2018-12-20T03:09:38.013Z,41.10
2018-12-20T03:12:04.217Z,41.00
2018-12-20T03:14:30.542Z,41.00
2018-12-20T03:16:56.651Z,41.00
2018-12-20T03:19:22.865Z,41.10
2018-12-20T03:21:49.351Z,41.10
2018-12-20T03:24:15.321Z,41.10
2018-12-20T03:26:42.007Z,41.10
2018-12-20T03:29:07.872Z,41.10
2018-12-20T03:31:34.400Z,41.10
2018-12-20T03:34:01.426Z,41.10
2018-12-20T03:36:28.373Z,41.10
2018-12-20T03:38:55.305Z,41.10
2018-12-20T03:41:21.373Z,41.10
2018-12-20T03:43:47.735Z,41.10
2018-12-20T03:46:14.518Z,41.10
2018-12-20T03:48:40.749Z,41.10
2018-12-20T03:51:07.188Z,41.10
2018-12-20T03:53:33.407Z,41.10
2018-12-20T03:55:59.539Z,41.10
2018-12-20T03:58:25.786Z,41.10
2018-12-20T04:00:52.850Z,41.20
2018-12-20T04:03:18.939Z,41.20
2018-12-20T04:05:45.277Z,41.20
2018-12-20T04:08:12.057Z,41.20
2018-12-20T04:10:38.299Z,41.20
2018-12-20T04:13:05.292Z,41.30
2018-12-20T04:15:37.746Z,41.10
2018-12-20T04:17:58.093Z,41.10
2018-12-20T04:20:24.948Z,41.20
2018-12-20T04:22:51.426Z,41.10
2018-12-20T04:25:17.700Z,41.20
2018-12-20T04:27:43.687Z,41.20
2018-12-20T04:30:09.998Z,41.20
2018-12-20T04:32:36.320Z,41.20
2018-12-20T04:35:02.403Z,41.30
2018-12-20T04:37:28.579Z,41.20
2018-12-20T04:39:54.878Z,41.20
2018-12-20T04:42:21.329Z,41.30
2018-12-20T04:44:47.279Z,41.30
2018-12-20T04:47:13.513Z,41.30
2018-12-20T04:49:39.691Z,41.90
2018-12-20T04:52:05.942Z,41.30
2018-12-20T04:54:32.210Z,41.30
2018-12-20T04:56:58.378Z,41.30
2018-12-20T04:59:24.816Z,41.30
2018-12-20T05:01:50.796Z,41.30
2018-12-20T05:04:17.120Z,41.30
2018-12-20T05:06:43.411Z,41.40
2018-12-20T05:09:09.577Z,41.40
2018-12-20T05:11:35.777Z,41.40
2018-12-20T05:14:02.019Z,41.40
2018-12-20T05:16:28.446Z,41.40
2018-12-20T05:18:54.990Z,41.40
2018-12-20T05:21:21.256Z,41.40
2018-12-20T05:23:47.491Z,41.40
2018-12-20T05:26:13.613Z,41.40
2018-12-20T05:28:39.796Z,41.40
2018-12-20T05:31:06.172Z,41.40
2018-12-20T05:33:32.260Z,41.40
2018-12-20T05:35:59.247Z,41.50
2018-12-20T05:38:25.474Z,41.50
2018-12-20T05:40:51.712Z,41.50
2018-12-20T05:43:17.710Z,41.60
2018-12-20T05:45:43.944Z,41.60
2018-12-20T05:48:10.146Z,41.60
2018-12-20T05:50:36.436Z,41.60
2018-12-20T05:53:02.703Z,41.60
2018-12-20T05:55:28.855Z,41.70
2018-12-20T05:57:55.284Z,41.60
2018-12-20T06:00:21.506Z,41.70
2018-12-20T06:02:47.705Z,41.70
2018-12-20T06:05:14.067Z,41.80
2018-12-20T06:07:41.003Z,41.80
2018-12-20T06:10:07.240Z,41.70
2018-12-20T06:12:33.575Z,41.80
2018-12-20T06:14:59.659Z,41.70
2018-12-20T06:17:26.067Z,41.70
2018-12-20T06:19:52.842Z,41.80
2018-12-20T06:22:18.524Z,41.80
2018-12-20T06:24:44.616Z,41.80
2018-12-20T06:27:10.823Z,41.80
2018-12-20T06:29:37.064Z,41.80
2018-12-20T06:32:03.268Z,41.80
2018-12-20T06:34:30.802Z,41.80
2018-12-20T06:36:57.036Z,41.80
2018-12-20T06:39:23.226Z,41.90
2018-12-20T06:41:49.465Z,41.80
2018-12-20T06:44:15.657Z,42.00
2018-12-20T06:46:41.856Z,41.90
2018-12-20T06:49:08.038Z,41.80
2018-12-20T06:51:34.263Z,41.90
2018-12-20T06:54:00.623Z,41.90
2018-12-20T06:56:26.828Z,41.80
2018-12-20T06:58:53.083Z,41.80
2018-12-20T07:01:19.268Z,41.90
2018-12-20T07:03:45.488Z,41.90
2018-12-20T07:06:11.691Z,42.50
2018-12-20T07:08:37.913Z,41.90
2018-12-20T07:11:04.187Z,41.90
2018-12-20T07:13:30.507Z,41.90
2018-12-20T07:15:56.647Z,41.90
2018-12-20T07:18:22.856Z,42.00
2018-12-20T07:20:49.064Z,41.90
2018-12-20T07:23:15.963Z,41.90
2018-12-20T07:25:42.143Z,42.00
2018-12-20T07:28:08.347Z,42.00
2018-12-20T07:30:34.541Z,42.00
2018-12-20T07:33:01.538Z,42.10
2018-12-20T07:35:28.505Z,42.00
2018-12-20T07:37:54.778Z,42.00
2018-12-20T07:40:21.008Z,42.10
2018-12-20T07:42:47.215Z,42.00
2018-12-20T07:45:13.467Z,42.00
2018-12-20T07:47:39.684Z,42.10
2018-12-20T07:50:05.893Z,42.10
2018-12-20T07:52:32.084Z,42.10
2018-12-20T07:54:58.307Z,42.10
2018-12-20T07:57:24.983Z,42.10
2018-12-20T07:59:50.791Z,42.10
2018-12-20T08:02:16.977Z,42.30
2018-12-20T08:04:43.290Z,42.50
2018-12-20T08:07:09.511Z,42.40
2018-12-20T08:09:35.728Z,42.60
2018-12-20T08:12:01.932Z,42.60
2018-12-20T08:14:28.135Z,42.60
2018-12-20T08:16:54.359Z,42.60
2018-12-20T08:19:20.557Z,42.60
2018-12-20T08:21:46.803Z,42.50
2018-12-20T08:24:13.091Z,42.50
2018-12-20T08:26:39.331Z,42.50
2018-12-20T08:29:05.522Z,42.50
2018-12-20T08:31:32.009Z,42.50
2018-12-20T08:33:58.229Z,42.50
2018-12-20T08:36:24.540Z,42.50
2018-12-20T08:38:50.718Z,42.50
2018-12-20T08:41:16.907Z,42.50
2018-12-20T08:43:43.107Z,42.60
2018-12-20T08:46:09.390Z,42.70
2018-12-20T08:48:35.821Z,42.70
2018-12-20T08:51:02.052Z,42.80
2018-12-20T08:53:28.231Z,42.70
2018-12-20T08:55:54.444Z,42.80
2018-12-20T08:58:20.623Z,42.70
2018-12-20T09:00:46.824Z,42.70
2018-12-20T09:03:13.762Z,42.90
2018-12-20T09:05:40.018Z,42.80
2018-12-20T09:08:07.144Z,42.90
2018-12-20T09:10:34.869Z,43.10
2018-12-20T09:13:01.089Z,43.00
2018-12-20T09:15:27.302Z,43.10
2018-12-20T09:17:53.500Z,43.10
2018-12-20T09:20:20.469Z,43.40
2018-12-20T09:22:46.683Z,43.30
2018-12-20T09:25:12.899Z,43.20
2018-12-20T09:27:39.097Z,43.30
2018-12-20T09:30:05.366Z,43.10
2018-12-20T09:32:31.548Z,43.10
2018-12-20T09:34:58.767Z,43.20
2018-12-20T09:37:25.078Z,43.10
2018-12-20T09:39:51.513Z,43.30
2018-12-20T09:42:17.691Z,43.20
2018-12-20T09:44:43.877Z,43.30
2018-12-20T09:47:11.785Z,43.20
2018-12-20T09:49:36.322Z,43.10
2018-12-20T09:52:02.523Z,43.10
2018-12-20T09:54:28.730Z,43.10
2018-12-20T09:56:54.927Z,43.00
2018-12-20T09:59:21.116Z,42.90
2018-12-20T10:01:47.647Z,42.90
2018-12-20T10:04:14.618Z,43.30
2018-12-20T10:06:40.808Z,42.80
2018-12-20T10:09:07.023Z,42.90
2018-12-20T10:11:33.204Z,42.90
2018-12-20T10:13:59.410Z,42.90
2018-12-20T10:16:26.348Z,42.90
2018-12-20T10:18:52.543Z,42.80
2018-12-20T10:21:18.744Z,42.90
2018-12-20T10:23:44.981Z,43.00
2018-12-20T10:26:11.185Z,43.10
2018-12-20T10:28:37.388Z,43.10
2018-12-20T10:31:04.393Z,43.30
2018-12-20T10:33:30.590Z,43.20
2018-12-20T10:35:56.763Z,43.30
2018-12-20T10:38:23.751Z,43.20
2018-12-20T10:40:49.949Z,43.10
2018-12-20T10:43:16.172Z,43.10
2018-12-20T10:45:42.364Z,43.30
2018-12-20T10:48:08.588Z,43.20
2018-12-20T10:50:34.776Z,43.40
2018-12-20T10:53:01.010Z,43.40
2018-12-20T10:55:27.192Z,43.30
2018-12-20T10:57:53.402Z,43.90
2018-12-20T11:00:19.591Z,43.30
2018-12-20T11:02:46.568Z,43.40
2018-12-20T11:05:12.778Z,43.30
2018-12-20T11:07:38.992Z,43.30
2018-12-20T11:10:05.207Z,43.60
2018-12-20T11:12:31.406Z,43.60
2018-12-20T11:14:57.629Z,43.80
2018-12-20T11:17:23.830Z,43.80
2018-12-20T11:19:50.024Z,43.80
2018-12-20T11:22:16.985Z,43.90
2018-12-20T11:24:43.980Z,43.80
2018-12-20T11:27:10.197Z,43.80
2018-12-20T11:29:36.423Z,43.80
2018-12-20T11:32:02.623Z,43.90
2018-12-20T11:34:28.858Z,44.00
2018-12-20T11:36:55.069Z,44.00
2018-12-20T11:39:21.303Z,44.10
2018-12-20T11:41:47.495Z,44.10
2018-12-20T11:44:13.701Z,44.10
2018-12-20T11:46:39.884Z,44.20
2018-12-20T11:49:06.047Z,44.20
2018-12-20T11:51:32.262Z,44.20
2018-12-20T11:53:58.458Z,44.30
2018-12-20T11:56:25.431Z,44.40
2018-12-20T11:58:51.639Z,44.30
2018-12-20T12:01:17.870Z,44.40
2018-12-20T12:03:44.061Z,44.80
2018-12-20T12:06:11.137Z,44.20
2018-12-20T12:08:37.376Z,44.10
2018-12-20T12:11:03.596Z,44.10
2018-12-20T12:13:29.778Z,44.00
2018-12-20T12:15:57.501Z,44.00
2018-12-20T12:18:23.761Z,43.90
2018-12-20T12:20:49.922Z,44.10
2018-12-20T12:23:16.145Z,44.10
2018-12-20T12:25:42.338Z,44.20
2018-12-20T12:28:08.543Z,44.20
2018-12-20T12:30:34.791Z,44.10
2018-12-20T12:33:01.029Z,44.10
2018-12-20T12:35:27.246Z,44.20
2018-12-20T12:37:53.459Z,44.10
2018-12-20T12:40:19.728Z,44.10
2018-12-20T12:42:45.938Z,44.00
2018-12-20T12:45:12.170Z,44.00
2018-12-20T12:47:38.386Z,44.10
2018-12-20T12:50:04.559Z,44.00
2018-12-20T12:52:31.535Z,44.20
2018-12-20T12:54:57.762Z,44.10
2018-12-20T12:57:24.179Z,44.20
2018-12-20T12:59:50.370Z,44.20
2018-12-20T13:02:16.580Z,44.00
2018-12-20T13:04:42.773Z,44.00
2018-12-20T13:07:08.976Z,43.90
2018-12-20T13:09:36.679Z,43.90
2018-12-20T13:12:02.871Z,43.90
2018-12-20T13:14:29.866Z,43.90
2018-12-20T13:16:56.045Z,43.80
2018-12-20T13:19:22.249Z,43.90
2018-12-20T13:21:49.935Z,44.20
2018-12-20T13:24:16.142Z,44.10
2018-12-20T13:26:42.319Z,44.20
2018-12-20T13:29:08.527Z,44.10
2018-12-20T13:31:34.714Z,44.10
2018-12-20T13:34:00.917Z,44.20
2018-12-20T13:36:27.314Z,44.20
2018-12-20T13:38:53.549Z,44.40
2018-12-20T13:41:19.743Z,44.30
2018-12-20T13:43:45.945Z,44.30
2018-12-20T13:46:12.168Z,44.20
2018-12-20T13:48:38.379Z,44.10
2018-12-20T13:51:04.577Z,44.10
2018-12-20T13:53:31.539Z,44.10
2018-12-20T13:55:57.765Z,44.10
2018-12-20T13:58:23.962Z,44.10
2018-12-20T14:00:50.169Z,44.10
2018-12-20T14:03:16.370Z,44.30
2018-12-20T14:05:42.583Z,44.30
2018-12-20T14:08:08.791Z,44.30
2018-12-20T14:10:35.030Z,44.20
2018-12-20T14:13:01.707Z,44.20
2018-12-20T14:15:27.883Z,44.10
2018-12-20T14:17:54.087Z,44.10
2018-12-20T14:20:20.281Z,44.10
2018-12-20T14:22:46.506Z,44.10
2018-12-20T14:25:12.704Z,44.00
2018-12-20T14:27:38.921Z,44.00
2018-12-20T14:30:05.120Z,44.00
2018-12-20T14:32:31.342Z,44.00
2018-12-20T14:34:58.311Z,44.10
2018-12-20T14:37:25.251Z,44.20
2018-12-20T14:39:51.497Z,44.10
2018-12-20T14:42:17.667Z,44.30
2018-12-20T14:44:43.875Z,44.20
2018-12-20T14:47:11.837Z,44.40
2018-12-20T14:49:38.051Z,44.20
2018-12-20T14:52:04.266Z,44.30
2018-12-20T14:54:30.452Z,44.20
2018-12-20T14:56:56.658Z,44.20
2018-12-20T14:59:22.941Z,44.20
2018-12-20T15:01:49.856Z,44.20
2018-12-20T15:04:16.052Z,44.70
2018-12-20T15:06:42.247Z,44.10
2018-12-20T15:09:08.431Z,44.10
2018-12-20T15:11:34.694Z,44.10
2018-12-20T15:14:00.908Z,44.10
2018-12-20T15:16:27.155Z,44.10
2018-12-20T15:18:53.354Z,44.00
2018-12-20T15:21:19.565Z,44.00
2018-12-20T15:23:47.103Z,44.00
2018-12-20T15:26:13.311Z,44.00
2018-12-20T15:28:39.521Z,44.10
2018-12-20T15:31:05.763Z,44.00
2018-12-20T15:33:33.559Z,44.10
2018-12-20T15:35:58.194Z,44.10
2018-12-20T15:38:24.454Z,44.10
2018-12-20T15:40:51.296Z,44.10
2018-12-20T15:43:17.509Z,44.10
2018-12-20T15:45:43.716Z,44.10
2018-12-20T15:48:09.945Z,44.40
2018-12-20T15:50:36.150Z,44.50
2018-12-20T15:53:02.370Z,44.50
2018-12-20T15:55:28.544Z,44.40
2018-12-20T15:57:55.893Z,44.50
2018-12-20T16:00:23.117Z,44.50
2018-12-20T16:02:49.396Z,44.50
2018-12-20T16:05:17.072Z,44.40
2018-12-20T16:07:43.290Z,44.50
2018-12-20T16:10:09.723Z,44.60
2018-12-20T16:12:36.976Z,44.40
2018-12-20T16:15:03.172Z,44.40
2018-12-20T16:17:29.391Z,44.40
2018-12-20T16:19:55.585Z,44.50
2018-12-20T16:22:21.788Z,44.60
2018-12-20T16:24:47.984Z,44.70
2018-12-20T16:27:14.176Z,44.60
2018-12-20T16:29:40.375Z,44.60
2018-12-20T16:32:06.554Z,44.50
2018-12-20T16:34:32.771Z,44.50
2018-12-20T16:36:58.939Z,44.70
2018-12-20T16:39:25.915Z,44.70
2018-12-20T16:41:52.323Z,44.60
2018-12-20T16:44:18.524Z,44.60
2018-12-20T16:46:44.731Z,44.80
2018-12-20T16:49:13.718Z,44.70
2018-12-20T16:51:37.215Z,44.70
2018-12-20T16:54:03.445Z,44.60
2018-12-20T16:56:29.611Z,44.80
2018-12-20T16:58:55.856Z,44.80
2018-12-20T17:01:22.949Z,44.90
2018-12-20T17:03:49.212Z,45.00
2018-12-20T17:06:15.374Z,44.90
2018-12-20T17:08:48.039Z,44.80
2018-12-20T17:11:07.782Z,44.90
2018-12-20T17:13:33.988Z,44.90
2018-12-20T17:16:00.948Z,45.10
2018-12-20T17:18:27.132Z,45.00
2018-12-20T17:20:53.339Z,45.10
2018-12-20T17:23:19.551Z,45.20
2018-12-20T17:25:45.778Z,45.30
2018-12-20T17:28:11.986Z,45.30
2018-12-20T17:30:39.492Z,45.30
2018-12-20T17:33:05.680Z,45.30
2018-12-20T17:35:31.888Z,45.30
2018-12-20T17:37:58.843Z,45.30
2018-12-20T17:40:25.088Z,45.20
2018-12-20T17:42:51.267Z,45.20
2018-12-20T17:45:17.487Z,45.20
2018-12-20T17:47:44.371Z,45.20
2018-12-20T17:50:10.646Z,45.20
2018-12-20T17:52:36.835Z,45.20
2018-12-20T17:55:03.018Z,45.30
2018-12-20T17:57:29.243Z,45.20
2018-12-20T17:59:56.126Z,45.30
2018-12-20T18:02:22.561Z,45.30
2018-12-20T18:04:48.770Z,45.30
2018-12-20T18:07:16.184Z,45.30
2018-12-20T18:09:41.213Z,45.30
2018-12-20T18:12:07.434Z,45.30
2018-12-20T18:14:33.628Z,45.40
2018-12-20T18:16:59.836Z,45.30
2018-12-20T18:19:26.068Z,45.30
2018-12-20T18:21:52.385Z,45.30
2018-12-20T18:24:18.613Z,45.40
2018-12-20T18:26:44.843Z,45.50
2018-12-20T18:29:11.014Z,45.70
2018-12-20T18:31:37.221Z,45.60
2018-12-20T18:34:04.642Z,45.50
2018-12-20T18:36:31.600Z,45.60
2018-12-20T18:38:57.827Z,45.60
2018-12-20T18:41:24.018Z,45.60
2018-12-20T18:43:50.249Z,45.50
2018-12-20T18:46:16.472Z,45.50
2018-12-20T18:48:44.179Z,45.70
2018-12-20T18:51:10.378Z,45.70
2018-12-20T18:53:36.607Z,45.70
2018-12-20T18:56:02.830Z,45.60
2018-12-20T18:58:29.065Z,45.60
2018-12-20T19:00:55.288Z,45.80
2018-12-20T19:03:21.545Z,45.80
2018-12-20T19:05:47.749Z,45.90
2018-12-20T19:08:13.968Z,45.70
2018-12-20T19:10:40.154Z,45.80
2018-12-20T19:13:06.348Z,45.90
2018-12-20T19:15:33.295Z,45.90
2018-12-20T19:17:59.743Z,45.90
2018-12-20T19:20:25.942Z,45.90
2018-12-20T19:22:52.133Z,46.00
2018-12-20T19:25:18.409Z,46.00
2018-12-20T19:27:44.591Z,46.00
2018-12-20T19:30:10.887Z,45.80
2018-12-20T19:32:37.105Z,46.00
2018-12-20T19:35:03.299Z,46.00
2018-12-20T19:37:29.507Z,46.00
2018-12-20T19:39:55.688Z,45.90
2018-12-20T19:42:21.861Z,45.90
2018-12-20T19:44:48.070Z,45.80
2018-12-20T19:47:14.299Z,45.70
2018-12-20T19:49:40.517Z,45.80
2018-12-20T19:52:06.740Z,46.00
2018-12-20T19:54:32.977Z,46.00
2018-12-20T19:56:59.218Z,46.00
2018-12-20T19:59:25.453Z,46.00
2018-12-20T20:01:51.680Z,45.90
2018-12-20T20:04:17.915Z,46.00
2018-12-20T20:06:44.109Z,45.90
2018-12-20T20:09:10.484Z,46.00
2018-12-20T20:11:36.749Z,46.00
2018-12-20T20:14:03.179Z,46.00
2018-12-20T20:16:29.388Z,46.00
2018-12-20T20:18:55.564Z,46.10
2018-12-20T20:21:21.814Z,46.00
2018-12-20T20:23:48.009Z,46.00
2018-12-20T20:26:14.322Z,46.10
2018-12-20T20:28:40.507Z,46.30
2018-12-20T20:31:07.489Z,46.10
2018-12-20T20:33:34.440Z,46.20
2018-12-20T20:36:00.667Z,46.00
2018-12-20T20:38:26.843Z,46.20
2018-12-20T20:40:53.048Z,46.40
2018-12-20T20:43:19.256Z,46.40
2018-12-20T20:45:45.514Z,46.40
2018-12-20T20:48:12.399Z,46.60
2018-12-20T20:50:38.855Z,46.50
2018-12-20T20:53:05.039Z,46.50
2018-12-20T20:55:31.251Z,46.60
2018-12-20T20:57:57.435Z,46.50
2018-12-20T21:00:24.586Z,46.40
2018-12-20T21:02:50.754Z,46.20
2018-12-20T21:05:16.994Z,46.30
2018-12-20T21:07:43.190Z,46.30
2018-12-20T21:10:09.372Z,46.40
2018-12-20T21:12:35.580Z,46.30
2018-12-20T21:15:01.779Z,46.40
2018-12-20T21:17:27.965Z,46.20
2018-12-20T21:19:54.151Z,46.20
2018-12-20T21:22:20.342Z,46.20
2018-12-20T21:24:46.506Z,46.20
2018-12-20T21:27:12.720Z,46.10
2018-12-20T21:29:38.928Z,46.00
2018-12-20T21:32:05.120Z,46.00
2018-12-20T21:34:31.307Z,46.00
2018-12-20T21:36:57.506Z,46.00
2018-12-20T21:39:23.713Z,46.00
2018-12-20T21:41:50.715Z,46.20
2018-12-20T21:44:16.907Z,46.10
2018-12-20T21:46:43.147Z,46.10
2018-12-20T21:49:09.343Z,46.30
2018-12-20T21:51:36.069Z,46.20
2018-12-20T21:54:02.322Z,46.20
2018-12-20T21:56:28.495Z,46.20
2018-12-20T21:58:54.707Z,46.40
2018-12-20T22:01:20.899Z,46.30
2018-12-20T22:03:47.100Z,46.40
2018-12-20T22:06:13.359Z,46.30
2018-12-20T22:08:39.550Z,46.50
2018-12-20T22:11:05.734Z,46.40
2018-12-20T22:13:31.924Z,46.30
2018-12-20T22:15:58.890Z,46.30
2018-12-20T22:18:25.090Z,46.30
2018-12-20T22:20:51.290Z,46.30
2018-12-20T22:23:17.497Z,46.40
2018-12-20T22:25:43.663Z,46.40
2018-12-20T22:28:10.623Z,46.60
2018-12-20T22:30:36.801Z,46.60
2018-12-20T22:33:02.989Z,46.50
2018-12-20T22:35:29.944Z,46.60
2018-12-20T22:37:56.175Z,46.60
2018-12-20T22:40:22.355Z,46.50
2018-12-20T22:42:48.555Z,46.40
2018-12-20T22:45:14.790Z,46.30
2018-12-20T22:47:40.976Z,46.10
2018-12-20T22:50:07.317Z,46.20
2018-12-20T22:52:33.512Z,46.10
2018-12-20T22:54:59.719Z,46.10
2018-12-20T22:57:25.914Z,46.10
2018-12-20T22:59:52.181Z,46.70
2018-12-20T23:02:18.858Z,46.20
2018-12-20T23:04:45.461Z,46.30
2018-12-20T23:07:11.686Z,46.20
2018-12-20T23:09:37.907Z,46.10
2018-12-20T23:12:04.101Z,46.10
2018-12-20T23:14:30.315Z,45.90
2018-12-20T23:16:56.512Z,46.30
2018-12-20T23:19:22.703Z,46.30
2018-12-20T23:21:48.923Z,46.30
2018-12-20T23:24:15.118Z,46.20
2018-12-20T23:26:41.314Z,46.20
2018-12-20T23:29:09.016Z,46.30
2018-12-20T23:31:36.214Z,46.30
2018-12-20T23:34:02.382Z,46.40
2018-12-20T23:36:28.651Z,46.40
2018-12-20T23:38:54.876Z,46.30
2018-12-20T23:41:21.136Z,46.40
2018-12-20T23:43:47.327Z,46.30
2018-12-20T23:46:13.529Z,46.40
2018-12-20T23:48:39.715Z,46.40
2018-12-20T23:51:13.262Z,46.50
2018-12-20T23:53:32.735Z,46.50
2018-12-20T23:55:58.979Z,46.40
2018-12-20T23:58:25.387Z,46.60
